sensor_id;sensor_type;location;lat;lon;timestamp;temperature;humidity
19868;DHT22;10096;51.112;6.776;2023-04-03T00:00:42;3.80;1.00
19868;DHT22;10096;51.112;6.776;2023-04-03T00:03:09;3.70;1.00
19868;DHT22;10096;51.112;6.776;2023-04-03T00:05:36;3.80;1.00
19868;DHT22;10096;51.112;6.776;2023-04-03T00:08:03;3.70;1.00
19868;DHT22;10096;51.112;6.776;2023-04-03T00:10:33;3.50;1.00
19868;DHT22;10096;51.112;6.776;2023-04-03T00:13:00;3.30;1.00
19868;DHT22;10096;51.112;6.776;2023-04-03T00:15:27;3.30;1.00
19868;DHT22;10096;51.112;6.776;2023-04-03T00:17:59;3.40;1.00
19868;DHT22;10096;51.112;6.776;2023-04-03T00:20:33;3.50;1.00
19868;DHT22;10096;51.112;6.776;2023-04-03T00:23:02;3.30;1.00
19868;DHT22;10096;51.112;6.776;2023-04-03T00:25:29;3.40;1.00
19868;DHT22;10096;51.112;6.776;2023-04-03T00:27:56;3.40;1.00
19868;DHT22;10096;51.112;6.776;2023-04-03T00:30:23;3.30;1.00
19868;DHT22;10096;51.112;6.776;2023-04-03T00:32:51;3.60;1.00
19868;DHT22;10096;51.112;6.776;2023-04-03T00:35:21;3.30;1.00
19868;DHT22;10096;51.112;6.776;2023-04-03T00:37:51;3.20;1.00
19868;DHT22;10096;51.112;6.776;2023-04-03T00:40:20;3.50;1.00
19868;DHT22;10096;51.112;6.776;2023-04-03T00:42:49;3.10;1.00
19868;DHT22;10096;51.112;6.776;2023-04-03T00:45:29;3.00;1.00
19868;DHT22;10096;51.112;6.776;2023-04-03T00:48:00;3.20;1.00
19868;DHT22;10096;51.112;6.776;2023-04-03T00:50:41;3.30;1.00
19868;DHT22;10096;51.112;6.776;2023-04-03T00:53:13;3.40;1.00
19868;DHT22;10096;51.112;6.776;2023-04-03T00:55:41;2.90;1.00
19868;DHT22;10096;51.112;6.776;2023-04-03T00:58:11;3.10;1.00
19868;DHT22;10096;51.112;6.776;2023-04-03T01:00:41;3.20;1.00
19868;DHT22;10096;51.112;6.776;2023-04-03T01:03:11;3.10;1.00
19868;DHT22;10096;51.112;6.776;2023-04-03T01:05:40;3.10;1.00
19868;DHT22;10096;51.112;6.776;2023-04-03T01:08:07;3.20;1.00
19868;DHT22;10096;51.112;6.776;2023-04-03T01:10:34;3.00;1.00
19868;DHT22;10096;51.112;6.776;2023-04-03T01:13:01;3.20;1.00
19868;DHT22;10096;51.112;6.776;2023-04-03T01:15:28;3.40;1.00
19868;DHT22;10096;51.112;6.776;2023-04-03T01:18:00;3.00;1.00
19868;DHT22;10096;51.112;6.776;2023-04-03T01:26:48;3.00;1.00
19868;DHT22;10096;51.112;6.776;2023-04-03T01:29:16;3.20;1.00
19868;DHT22;10096;51.112;6.776;2023-04-03T01:31:51;3.10;1.00
19868;DHT22;10096;51.112;6.776;2023-04-03T01:34:21;3.30;1.00
19868;DHT22;10096;51.112;6.776;2023-04-03T01:36:49;3.30;1.00
19868;DHT22;10096;51.112;6.776;2023-04-03T01:39:18;3.00;1.00
19868;DHT22;10096;51.112;6.776;2023-04-03T01:41:45;2.90;1.00
19868;DHT22;10096;51.112;6.776;2023-04-03T01:44:12;3.20;1.00
19868;DHT22;10096;51.112;6.776;2023-04-03T01:46:39;2.90;1.00
19868;DHT22;10096;51.112;6.776;2023-04-03T01:49:08;3.00;1.00
19868;DHT22;10096;51.112;6.776;2023-04-03T01:51:35;2.90;1.00
19868;DHT22;10096;51.112;6.776;2023-04-03T01:54:03;2.90;1.00
19868;DHT22;10096;51.112;6.776;2023-04-03T01:56:30;3.00;1.00
19868;DHT22;10096;51.112;6.776;2023-04-03T01:58:57;2.80;1.00
19868;DHT22;10096;51.112;6.776;2023-04-03T02:01:26;2.80;1.00
19868;DHT22;10096;51.112;6.776;2023-04-03T02:03:55;2.70;1.00
19868;DHT22;10096;51.112;6.776;2023-04-03T02:06:32;2.90;1.00
19868;DHT22;10096;51.112;6.776;2023-04-03T02:09:01;3.00;1.00
19868;DHT22;10096;51.112;6.776;2023-04-03T02:11:28;3.00;1.00
19868;DHT22;10096;51.112;6.776;2023-04-03T02:13:57;2.80;1.00
19868;DHT22;10096;51.112;6.776;2023-04-03T02:16:24;2.90;1.00
19868;DHT22;10096;51.112;6.776;2023-04-03T02:18:54;2.80;1.00
19868;DHT22;10096;51.112;6.776;2023-04-03T02:21:23;2.80;1.00
19868;DHT22;10096;51.112;6.776;2023-04-03T02:23:56;2.70;1.00
19868;DHT22;10096;51.112;6.776;2023-04-03T02:26:23;2.90;1.00
19868;DHT22;10096;51.112;6.776;2023-04-03T02:28:51;2.80;1.00
19868;DHT22;10096;51.112;6.776;2023-04-03T02:31:21;3.10;1.00
19868;DHT22;10096;51.112;6.776;2023-04-03T02:33:49;2.80;1.00
19868;DHT22;10096;51.112;6.776;2023-04-03T02:36:17;2.90;1.00
19868;DHT22;10096;51.112;6.776;2023-04-03T02:38:44;2.90;1.00
19868;DHT22;10096;51.112;6.776;2023-04-03T02:41:13;2.90;1.00
19868;DHT22;10096;51.112;6.776;2023-04-03T02:43:40;3.00;1.00
19868;DHT22;10096;51.112;6.776;2023-04-03T02:46:07;2.80;1.00
19868;DHT22;10096;51.112;6.776;2023-04-03T02:48:35;3.20;1.00
19868;DHT22;10096;51.112;6.776;2023-04-03T02:51:03;3.10;1.00
19868;DHT22;10096;51.112;6.776;2023-04-03T02:53:32;2.90;1.00
19868;DHT22;10096;51.112;6.776;2023-04-03T02:56:02;2.90;1.00
19868;DHT22;10096;51.112;6.776;2023-04-03T02:58:30;2.90;1.00
19868;DHT22;10096;51.112;6.776;2023-04-03T03:00:57;2.80;1.00
19868;DHT22;10096;51.112;6.776;2023-04-03T03:03:24;2.90;1.00
19868;DHT22;10096;51.112;6.776;2023-04-03T03:06:01;2.80;1.00
19868;DHT22;10096;51.112;6.776;2023-04-03T03:08:28;2.90;1.00
19868;DHT22;10096;51.112;6.776;2023-04-03T03:10:55;2.80;1.00
19868;DHT22;10096;51.112;6.776;2023-04-03T03:13:22;2.80;1.00
19868;DHT22;10096;51.112;6.776;2023-04-03T03:15:51;3.10;1.00
19868;DHT22;10096;51.112;6.776;2023-04-03T03:18:22;2.90;1.00
19868;DHT22;10096;51.112;6.776;2023-04-03T03:20:51;3.00;1.00
19868;DHT22;10096;51.112;6.776;2023-04-03T03:23:24;3.10;1.00
19868;DHT22;10096;51.112;6.776;2023-04-03T03:25:55;3.00;1.00
19868;DHT22;10096;51.112;6.776;2023-04-03T03:28:23;2.90;1.00
19868;DHT22;10096;51.112;6.776;2023-04-03T03:30:54;2.90;1.00
19868;DHT22;10096;51.112;6.776;2023-04-03T03:33:21;2.80;1.00
19868;DHT22;10096;51.112;6.776;2023-04-03T03:35:48;3.10;1.00
19868;DHT22;10096;51.112;6.776;2023-04-03T03:38:15;2.80;1.00
19868;DHT22;10096;51.112;6.776;2023-04-03T03:40:43;2.80;1.00
19868;DHT22;10096;51.112;6.776;2023-04-03T03:43:10;2.80;1.00
19868;DHT22;10096;51.112;6.776;2023-04-03T03:45:36;2.80;1.00
19868;DHT22;10096;51.112;6.776;2023-04-03T03:48:05;2.90;1.00
19868;DHT22;10096;51.112;6.776;2023-04-03T03:50:36;2.80;1.00
19868;DHT22;10096;51.112;6.776;2023-04-03T03:53:12;2.70;1.00
19868;DHT22;10096;51.112;6.776;2023-04-03T03:55:43;2.70;1.00
19868;DHT22;10096;51.112;6.776;2023-04-03T03:58:10;2.70;1.00
19868;DHT22;10096;51.112;6.776;2023-04-03T04:00:40;2.60;1.00
19868;DHT22;10096;51.112;6.776;2023-04-03T04:03:08;2.50;1.00
19868;DHT22;10096;51.112;6.776;2023-04-03T04:05:37;2.80;1.00
19868;DHT22;10096;51.112;6.776;2023-04-03T04:08:05;2.60;1.00
19868;DHT22;10096;51.112;6.776;2023-04-03T04:10:32;2.60;1.00
19868;DHT22;10096;51.112;6.776;2023-04-03T04:13:01;2.50;1.00
19868;DHT22;10096;51.112;6.776;2023-04-03T04:15:28;2.40;1.00
19868;DHT22;10096;51.112;6.776;2023-04-03T04:17:59;2.40;1.00
19868;DHT22;10096;51.112;6.776;2023-04-03T04:20:28;2.40;1.00
19868;DHT22;10096;51.112;6.776;2023-04-03T04:22:54;2.30;1.00
19868;DHT22;10096;51.112;6.776;2023-04-03T04:25:21;2.30;1.00
19868;DHT22;10096;51.112;6.776;2023-04-03T04:27:48;2.50;1.00
19868;DHT22;10096;51.112;6.776;2023-04-03T04:30:17;2.30;1.00
19868;DHT22;10096;51.112;6.776;2023-04-03T04:32:45;2.30;1.00
19868;DHT22;10096;51.112;6.776;2023-04-03T04:35:13;2.20;1.00
19868;DHT22;10096;51.112;6.776;2023-04-03T04:37:42;2.20;1.00
19868;DHT22;10096;51.112;6.776;2023-04-03T04:40:10;2.20;1.00
19868;DHT22;10096;51.112;6.776;2023-04-03T04:42:37;2.20;1.00
19868;DHT22;10096;51.112;6.776;2023-04-03T04:45:08;2.30;1.00
19868;DHT22;10096;51.112;6.776;2023-04-03T04:47:35;2.20;1.00
19868;DHT22;10096;51.112;6.776;2023-04-03T04:50:03;2.20;1.00
19868;DHT22;10096;51.112;6.776;2023-04-03T04:52:30;2.20;1.00
19868;DHT22;10096;51.112;6.776;2023-04-03T04:55:00;2.20;1.00
19868;DHT22;10096;51.112;6.776;2023-04-03T04:57:27;2.20;1.00
19868;DHT22;10096;51.112;6.776;2023-04-03T04:59:56;2.20;1.00
19868;DHT22;10096;51.112;6.776;2023-04-03T05:02:25;2.30;1.00
19868;DHT22;10096;51.112;6.776;2023-04-03T05:04:52;2.20;1.00
19868;DHT22;10096;51.112;6.776;2023-04-03T05:07:20;2.20;1.00
19868;DHT22;10096;51.112;6.776;2023-04-03T05:09:47;2.30;1.00
19868;DHT22;10096;51.112;6.776;2023-04-03T05:12:28;2.20;1.00
19868;DHT22;10096;51.112;6.776;2023-04-03T05:14:55;2.70;1.00
19868;DHT22;10096;51.112;6.776;2023-04-03T05:17:24;3.00;1.00
19868;DHT22;10096;51.112;6.776;2023-04-03T05:19:54;3.50;1.00
19868;DHT22;10096;51.112;6.776;2023-04-03T05:22:29;4.00;1.00
19868;DHT22;10096;51.112;6.776;2023-04-03T05:24:56;4.50;1.00
19868;DHT22;10096;51.112;6.776;2023-04-03T05:27:24;4.90;1.00
19868;DHT22;10096;51.112;6.776;2023-04-03T05:29:53;5.20;1.00
19868;DHT22;10096;51.112;6.776;2023-04-03T05:32:20;5.80;1.00
19868;DHT22;10096;51.112;6.776;2023-04-03T05:34:47;5.70;1.00
19868;DHT22;10096;51.112;6.776;2023-04-03T05:37:16;4.90;1.00
19868;DHT22;10096;51.112;6.776;2023-04-03T05:39:43;4.50;1.00
19868;DHT22;10096;51.112;6.776;2023-04-03T05:42:10;4.00;1.00
19868;DHT22;10096;51.112;6.776;2023-04-03T05:44:44;4.00;1.00
19868;DHT22;10096;51.112;6.776;2023-04-03T05:47:12;3.70;1.00
19868;DHT22;10096;51.112;6.776;2023-04-03T05:49:40;3.90;1.00
19868;DHT22;10096;51.112;6.776;2023-04-03T05:52:11;4.90;1.00
19868;DHT22;10096;51.112;6.776;2023-04-03T05:54:44;6.30;1.00
19868;DHT22;10096;51.112;6.776;2023-04-03T05:57:13;7.50;99.90
19868;DHT22;10096;51.112;6.776;2023-04-03T05:59:44;8.30;99.90
19868;DHT22;10096;51.112;6.776;2023-04-03T06:02:13;9.00;99.90
19868;DHT22;10096;51.112;6.776;2023-04-03T06:04:40;9.60;99.90
19868;DHT22;10096;51.112;6.776;2023-04-03T06:07:11;10.30;99.90
19868;DHT22;10096;51.112;6.776;2023-04-03T06:09:38;10.80;99.90
19868;DHT22;10096;51.112;6.776;2023-04-03T06:12:06;11.30;99.90
19868;DHT22;10096;51.112;6.776;2023-04-03T06:14:33;11.30;99.90
19868;DHT22;10096;51.112;6.776;2023-04-03T06:17:04;11.50;99.90
19868;DHT22;10096;51.112;6.776;2023-04-03T06:19:32;12.30;99.90
19868;DHT22;10096;51.112;6.776;2023-04-03T06:21:59;12.40;99.90
19868;DHT22;10096;51.112;6.776;2023-04-03T06:24:27;12.50;99.90
19868;DHT22;10096;51.112;6.776;2023-04-03T06:26:54;12.90;99.90
19868;DHT22;10096;51.112;6.776;2023-04-03T06:29:21;13.00;99.90
19868;DHT22;10096;51.112;6.776;2023-04-03T06:31:48;13.50;99.90
19868;DHT22;10096;51.112;6.776;2023-04-03T06:34:17;13.10;99.90
19868;DHT22;10096;51.112;6.776;2023-04-03T06:36:45;13.20;99.90
19868;DHT22;10096;51.112;6.776;2023-04-03T06:39:15;13.40;99.90
19868;DHT22;10096;51.112;6.776;2023-04-03T06:41:43;13.80;99.90
19868;DHT22;10096;51.112;6.776;2023-04-03T06:44:12;13.30;99.90
19868;DHT22;10096;51.112;6.776;2023-04-03T06:46:42;13.00;99.90
19868;DHT22;10096;51.112;6.776;2023-04-03T06:49:14;12.50;99.90
19868;DHT22;10096;51.112;6.776;2023-04-03T06:51:43;12.70;99.90
19868;DHT22;10096;51.112;6.776;2023-04-03T06:54:10;12.60;99.90
19868;DHT22;10096;51.112;6.776;2023-04-03T06:56:38;12.80;99.90
19868;DHT22;10096;51.112;6.776;2023-04-03T06:59:06;12.80;99.90
19868;DHT22;10096;51.112;6.776;2023-04-03T07:01:37;12.70;99.90
19868;DHT22;10096;51.112;6.776;2023-04-03T07:04:04;12.30;99.90
19868;DHT22;10096;51.112;6.776;2023-04-03T07:06:33;12.20;99.90
19868;DHT22;10096;51.112;6.776;2023-04-03T07:09:14;12.10;99.90
19868;DHT22;10096;51.112;6.776;2023-04-03T07:11:41;11.90;99.90
19868;DHT22;10096;51.112;6.776;2023-04-03T07:14:08;12.40;99.90
19868;DHT22;10096;51.112;6.776;2023-04-03T07:16:36;12.80;99.90
19868;DHT22;10096;51.112;6.776;2023-04-03T07:19:06;12.60;99.90
19868;DHT22;10096;51.112;6.776;2023-04-03T07:21:37;13.20;99.90
19868;DHT22;10096;51.112;6.776;2023-04-03T07:24:14;13.00;99.90
19868;DHT22;10096;51.112;6.776;2023-04-03T07:26:41;12.60;99.90
19868;DHT22;10096;51.112;6.776;2023-04-03T07:29:11;12.30;99.90
19868;DHT22;10096;51.112;6.776;2023-04-03T07:31:40;12.90;99.90
19868;DHT22;10096;51.112;6.776;2023-04-03T07:34:08;12.90;99.90
19868;DHT22;10096;51.112;6.776;2023-04-03T07:36:37;13.00;99.90
19868;DHT22;10096;51.112;6.776;2023-04-03T07:39:04;12.80;99.90
19868;DHT22;10096;51.112;6.776;2023-04-03T07:41:34;12.60;99.90
19868;DHT22;10096;51.112;6.776;2023-04-03T07:44:07;12.50;99.90
19868;DHT22;10096;51.112;6.776;2023-04-03T07:46:35;12.50;99.90
19868;DHT22;10096;51.112;6.776;2023-04-03T07:49:04;12.20;99.90
19868;DHT22;10096;51.112;6.776;2023-04-03T07:51:38;12.40;99.90
19868;DHT22;10096;51.112;6.776;2023-04-03T07:54:07;12.40;99.90
19868;DHT22;10096;51.112;6.776;2023-04-03T07:56:45;12.50;99.90
19868;DHT22;10096;51.112;6.776;2023-04-03T07:59:12;12.50;99.90
19868;DHT22;10096;51.112;6.776;2023-04-03T08:01:41;12.50;99.90
19868;DHT22;10096;51.112;6.776;2023-04-03T08:04:10;12.60;99.90
19868;DHT22;10096;51.112;6.776;2023-04-03T08:06:37;12.40;99.90
19868;DHT22;10096;51.112;6.776;2023-04-03T08:09:04;12.90;99.90
19868;DHT22;10096;51.112;6.776;2023-04-03T08:11:31;13.40;99.90
19868;DHT22;10096;51.112;6.776;2023-04-03T08:14:02;12.80;99.90
19868;DHT22;10096;51.112;6.776;2023-04-03T08:16:29;13.20;99.90
19868;DHT22;10096;51.112;6.776;2023-04-03T08:19:04;13.70;99.90
19868;DHT22;10096;51.112;6.776;2023-04-03T08:21:32;13.30;99.90
19868;DHT22;10096;51.112;6.776;2023-04-03T08:23:59;12.40;99.90
19868;DHT22;10096;51.112;6.776;2023-04-03T08:26:26;12.30;99.90
19868;DHT22;10096;51.112;6.776;2023-04-03T08:28:56;12.20;99.90
19868;DHT22;10096;51.112;6.776;2023-04-03T08:31:33;12.40;99.90
19868;DHT22;10096;51.112;6.776;2023-04-03T08:34:03;12.40;99.90
19868;DHT22;10096;51.112;6.776;2023-04-03T08:36:31;12.40;99.90
19868;DHT22;10096;51.112;6.776;2023-04-03T08:38:59;11.50;99.90
19868;DHT22;10096;51.112;6.776;2023-04-03T08:41:31;11.50;99.90
19868;DHT22;10096;51.112;6.776;2023-04-03T08:44:11;11.60;99.90
19868;DHT22;10096;51.112;6.776;2023-04-03T08:46:52;11.10;99.90
19868;DHT22;10096;51.112;6.776;2023-04-03T08:49:26;10.90;99.90
19868;DHT22;10096;51.112;6.776;2023-04-03T08:51:54;10.40;99.90
19868;DHT22;10096;51.112;6.776;2023-04-03T08:54:29;9.80;99.90
19868;DHT22;10096;51.112;6.776;2023-04-03T08:56:58;9.40;99.90
19868;DHT22;10096;51.112;6.776;2023-04-03T08:59:29;9.20;99.90
19868;DHT22;10096;51.112;6.776;2023-04-03T09:02:02;8.70;99.90
19868;DHT22;10096;51.112;6.776;2023-04-03T09:04:36;8.90;99.90
19868;DHT22;10096;51.112;6.776;2023-04-03T09:07:13;8.90;99.90
19868;DHT22;10096;51.112;6.776;2023-04-03T09:09:43;8.80;99.90
19868;DHT22;10096;51.112;6.776;2023-04-03T09:12:18;9.00;99.90
19868;DHT22;10096;51.112;6.776;2023-04-03T09:14:52;9.00;99.90
19868;DHT22;10096;51.112;6.776;2023-04-03T09:17:38;8.90;99.90
19868;DHT22;10096;51.112;6.776;2023-04-03T09:20:17;8.80;99.90
19868;DHT22;10096;51.112;6.776;2023-04-03T09:22:48;9.00;99.90
19868;DHT22;10096;51.112;6.776;2023-04-03T09:25:18;9.00;99.90
19868;DHT22;10096;51.112;6.776;2023-04-03T09:27:46;9.20;99.90
19868;DHT22;10096;51.112;6.776;2023-04-03T09:30:15;9.00;99.90
19868;DHT22;10096;51.112;6.776;2023-04-03T09:32:50;8.90;99.90
19868;DHT22;10096;51.112;6.776;2023-04-03T09:35:41;9.30;99.90
19868;DHT22;10096;51.112;6.776;2023-04-03T09:38:25;8.90;99.90
19868;DHT22;10096;51.112;6.776;2023-04-03T09:41:04;9.20;99.90
19868;DHT22;10096;51.112;6.776;2023-04-03T09:43:32;9.20;99.90
19868;DHT22;10096;51.112;6.776;2023-04-03T09:46:20;8.90;99.90
19868;DHT22;10096;51.112;6.776;2023-04-03T09:48:55;9.00;99.90
19868;DHT22;10096;51.112;6.776;2023-04-03T09:51:27;9.20;99.90
19868;DHT22;10096;51.112;6.776;2023-04-03T09:53:55;9.30;99.90
19868;DHT22;10096;51.112;6.776;2023-04-03T09:56:25;9.20;99.90
19868;DHT22;10096;51.112;6.776;2023-04-03T09:59:11;9.00;99.90
19868;DHT22;10096;51.112;6.776;2023-04-03T10:01:42;9.00;99.90
19868;DHT22;10096;51.112;6.776;2023-04-03T10:04:13;9.10;99.90
19868;DHT22;10096;51.112;6.776;2023-04-03T10:06:46;9.00;99.90
19868;DHT22;10096;51.112;6.776;2023-04-03T10:09:20;9.00;99.90
19868;DHT22;10096;51.112;6.776;2023-04-03T10:12:03;9.20;99.90
19868;DHT22;10096;51.112;6.776;2023-04-03T10:14:34;9.10;99.90
19868;DHT22;10096;51.112;6.776;2023-04-03T10:17:25;9.20;99.90
19868;DHT22;10096;51.112;6.776;2023-04-03T10:19:57;9.30;99.90
19868;DHT22;10096;51.112;6.776;2023-04-03T10:22:39;9.10;99.90
19868;DHT22;10096;51.112;6.776;2023-04-03T10:25:14;9.30;99.90
19868;DHT22;10096;51.112;6.776;2023-04-03T10:27:49;9.60;99.90
19868;DHT22;10096;51.112;6.776;2023-04-03T10:30:36;9.70;99.90
19868;DHT22;10096;51.112;6.776;2023-04-03T10:33:20;9.60;99.90
19868;DHT22;10096;51.112;6.776;2023-04-03T10:35:58;9.80;99.90
19868;DHT22;10096;51.112;6.776;2023-04-03T10:38:40;9.60;99.90
19868;DHT22;10096;51.112;6.776;2023-04-03T10:41:14;9.60;99.90
19868;DHT22;10096;51.112;6.776;2023-04-03T10:43:48;9.30;99.90
19868;DHT22;10096;51.112;6.776;2023-04-03T10:46:22;9.70;99.90
19868;DHT22;10096;51.112;6.776;2023-04-03T10:49:01;9.50;99.90
19868;DHT22;10096;51.112;6.776;2023-04-03T10:51:38;9.50;99.90
19868;DHT22;10096;51.112;6.776;2023-04-03T10:54:18;9.60;99.90
19868;DHT22;10096;51.112;6.776;2023-04-03T10:56:55;9.80;99.90
19868;DHT22;10096;51.112;6.776;2023-04-03T10:59:25;9.70;99.90
19868;DHT22;10096;51.112;6.776;2023-04-03T11:01:56;9.70;99.90
19868;DHT22;10096;51.112;6.776;2023-04-03T11:04:49;9.70;99.90
19868;DHT22;10096;51.112;6.776;2023-04-03T11:07:24;9.60;99.90
19868;DHT22;10096;51.112;6.776;2023-04-03T11:09:56;9.90;99.90
19868;DHT22;10096;51.112;6.776;2023-04-03T11:12:26;9.70;99.90
19868;DHT22;10096;51.112;6.776;2023-04-03T11:14:56;9.70;99.90
19868;DHT22;10096;51.112;6.776;2023-04-03T11:17:34;9.40;99.90
19868;DHT22;10096;51.112;6.776;2023-04-03T11:20:08;9.80;99.90
19868;DHT22;10096;51.112;6.776;2023-04-03T11:22:42;9.50;99.90
19868;DHT22;10096;51.112;6.776;2023-04-03T11:25:19;9.60;99.90
19868;DHT22;10096;51.112;6.776;2023-04-03T11:27:51;9.70;99.90
19868;DHT22;10096;51.112;6.776;2023-04-03T11:30:22;9.90;99.90
19868;DHT22;10096;51.112;6.776;2023-04-03T11:33:15;9.80;99.90
19868;DHT22;10096;51.112;6.776;2023-04-03T11:35:47;9.80;99.90
19868;DHT22;10096;51.112;6.776;2023-04-03T11:38:20;9.80;99.90
19868;DHT22;10096;51.112;6.776;2023-04-03T11:40:50;9.80;99.90
19868;DHT22;10096;51.112;6.776;2023-04-03T11:43:22;9.70;99.90
19868;DHT22;10096;51.112;6.776;2023-04-03T11:45:54;9.80;99.90
19868;DHT22;10096;51.112;6.776;2023-04-03T11:48:45;10.00;99.90
19868;DHT22;10096;51.112;6.776;2023-04-03T11:51:40;9.90;99.90
19868;DHT22;10096;51.112;6.776;2023-04-03T11:54:36;9.90;99.90
19868;DHT22;10096;51.112;6.776;2023-04-03T12:01:02;10.10;99.90
19868;DHT22;10096;51.112;6.776;2023-04-03T12:04:08;9.90;99.90
19868;DHT22;10096;51.112;6.776;2023-04-03T12:10:17;10.20;99.90
19868;DHT22;10096;51.112;6.776;2023-04-03T12:12:56;10.00;99.90
19868;DHT22;10096;51.112;6.776;2023-04-03T12:15:53;10.10;99.90
19868;DHT22;10096;51.112;6.776;2023-04-03T12:18:42;10.00;99.90
19868;DHT22;10096;51.112;6.776;2023-04-03T12:21:13;10.20;99.90
19868;DHT22;10096;51.112;6.776;2023-04-03T12:24:22;10.10;99.90
19868;DHT22;10096;51.112;6.776;2023-04-03T12:27:00;10.20;99.90
19868;DHT22;10096;51.112;6.776;2023-04-03T12:29:33;10.10;99.90
19868;DHT22;10096;51.112;6.776;2023-04-03T12:32:11;10.40;99.90
19868;DHT22;10096;51.112;6.776;2023-04-03T12:34:54;10.50;99.90
19868;DHT22;10096;51.112;6.776;2023-04-03T12:40:27;10.40;99.90
19868;DHT22;10096;51.112;6.776;2023-04-03T12:43:09;10.40;99.90
19868;DHT22;10096;51.112;6.776;2023-04-03T12:45:47;10.50;99.90
19868;DHT22;10096;51.112;6.776;2023-04-03T12:48:24;10.60;99.90
19868;DHT22;10096;51.112;6.776;2023-04-03T12:50:52;10.30;99.90
19868;DHT22;10096;51.112;6.776;2023-04-03T12:53:22;10.50;99.90
19868;DHT22;10096;51.112;6.776;2023-04-03T12:55:54;10.60;99.90
19868;DHT22;10096;51.112;6.776;2023-04-03T12:58:24;10.50;99.90
19868;DHT22;10096;51.112;6.776;2023-04-03T13:01:15;10.40;99.90
19868;DHT22;10096;51.112;6.776;2023-04-03T13:03:57;10.40;99.90
19868;DHT22;10096;51.112;6.776;2023-04-03T13:06:41;10.50;99.90
19868;DHT22;10096;51.112;6.776;2023-04-03T13:09:19;10.40;99.90
19868;DHT22;10096;51.112;6.776;2023-04-03T13:11:50;10.40;99.90
19868;DHT22;10096;51.112;6.776;2023-04-03T13:14:19;10.60;99.90
19868;DHT22;10096;51.112;6.776;2023-04-03T13:16:58;10.40;99.90
19868;DHT22;10096;51.112;6.776;2023-04-03T13:19:38;10.50;99.90
19868;DHT22;10096;51.112;6.776;2023-04-03T13:22:15;10.50;99.90
19868;DHT22;10096;51.112;6.776;2023-04-03T13:24:49;10.40;99.90
19868;DHT22;10096;51.112;6.776;2023-04-03T13:27:17;10.60;99.90
19868;DHT22;10096;51.112;6.776;2023-04-03T13:29:49;10.40;99.90
19868;DHT22;10096;51.112;6.776;2023-04-03T13:32:19;10.60;99.90
19868;DHT22;10096;51.112;6.776;2023-04-03T13:34:49;10.50;99.90
19868;DHT22;10096;51.112;6.776;2023-04-03T13:37:21;10.30;99.90
19868;DHT22;10096;51.112;6.776;2023-04-03T13:40:03;10.40;99.90
19868;DHT22;10096;51.112;6.776;2023-04-03T13:42:32;10.40;99.90
19868;DHT22;10096;51.112;6.776;2023-04-03T13:45:24;10.40;99.90
19868;DHT22;10096;51.112;6.776;2023-04-03T13:48:06;10.40;99.90
19868;DHT22;10096;51.112;6.776;2023-04-03T13:50:52;10.60;99.90
19868;DHT22;10096;51.112;6.776;2023-04-03T13:53:21;10.40;99.90
19868;DHT22;10096;51.112;6.776;2023-04-03T13:56:04;10.50;99.90
19868;DHT22;10096;51.112;6.776;2023-04-03T13:58:34;10.50;99.90
19868;DHT22;10096;51.112;6.776;2023-04-03T14:01:10;10.60;99.90
19868;DHT22;10096;51.112;6.776;2023-04-03T14:03:42;10.60;99.90
19868;DHT22;10096;51.112;6.776;2023-04-03T14:06:14;10.70;99.90
19868;DHT22;10096;51.112;6.776;2023-04-03T14:08:42;10.50;99.90
19868;DHT22;10096;51.112;6.776;2023-04-03T14:11:24;10.30;99.90
19868;DHT22;10096;51.112;6.776;2023-04-03T14:13:53;10.40;99.90
19868;DHT22;10096;51.112;6.776;2023-04-03T14:16:22;10.40;99.90
19868;DHT22;10096;51.112;6.776;2023-04-03T14:18:50;10.40;99.90
19868;DHT22;10096;51.112;6.776;2023-04-03T14:21:21;10.20;99.90
19868;DHT22;10096;51.112;6.776;2023-04-03T14:23:48;10.40;99.90
19868;DHT22;10096;51.112;6.776;2023-04-03T14:26:31;10.50;99.90
19868;DHT22;10096;51.112;6.776;2023-04-03T14:28:59;10.60;99.90
19868;DHT22;10096;51.112;6.776;2023-04-03T14:31:26;10.50;99.90
19868;DHT22;10096;51.112;6.776;2023-04-03T14:33:55;10.50;99.90
19868;DHT22;10096;51.112;6.776;2023-04-03T14:36:26;10.60;99.90
19868;DHT22;10096;51.112;6.776;2023-04-03T14:38:54;10.60;99.90
19868;DHT22;10096;51.112;6.776;2023-04-03T14:41:25;10.30;99.90
19868;DHT22;10096;51.112;6.776;2023-04-03T14:43:53;10.50;99.90
19868;DHT22;10096;51.112;6.776;2023-04-03T14:46:23;10.50;99.90
19868;DHT22;10096;51.112;6.776;2023-04-03T14:48:50;10.40;99.90
19868;DHT22;10096;51.112;6.776;2023-04-03T14:51:18;10.30;99.90
19868;DHT22;10096;51.112;6.776;2023-04-03T14:53:47;10.50;99.90
19868;DHT22;10096;51.112;6.776;2023-04-03T14:56:19;10.40;99.90
19868;DHT22;10096;51.112;6.776;2023-04-03T14:58:48;10.50;99.90
19868;DHT22;10096;51.112;6.776;2023-04-03T15:01:16;10.60;99.90
19868;DHT22;10096;51.112;6.776;2023-04-03T15:03:43;10.70;99.90
19868;DHT22;10096;51.112;6.776;2023-04-03T15:06:11;10.60;99.90
19868;DHT22;10096;51.112;6.776;2023-04-03T15:08:40;10.30;99.90
19868;DHT22;10096;51.112;6.776;2023-04-03T15:11:10;10.50;99.90
19868;DHT22;10096;51.112;6.776;2023-04-03T15:13:37;10.40;99.90
19868;DHT22;10096;51.112;6.776;2023-04-03T15:16:06;10.50;99.90
19868;DHT22;10096;51.112;6.776;2023-04-03T15:18:38;10.30;99.90
19868;DHT22;10096;51.112;6.776;2023-04-03T15:21:05;10.50;99.90
19868;DHT22;10096;51.112;6.776;2023-04-03T15:23:32;10.40;99.90
19868;DHT22;10096;51.112;6.776;2023-04-03T15:25:59;10.50;99.90
19868;DHT22;10096;51.112;6.776;2023-04-03T15:28:30;10.20;99.90
19868;DHT22;10096;51.112;6.776;2023-04-03T15:30:58;10.30;99.90
19868;DHT22;10096;51.112;6.776;2023-04-03T15:33:26;10.10;99.90
19868;DHT22;10096;51.112;6.776;2023-04-03T15:35:54;10.20;99.90
19868;DHT22;10096;51.112;6.776;2023-04-03T15:38:22;10.10;99.90
19868;DHT22;10096;51.112;6.776;2023-04-03T15:40:49;10.20;99.90
19868;DHT22;10096;51.112;6.776;2023-04-03T15:43:16;10.10;99.90
19868;DHT22;10096;51.112;6.776;2023-04-03T15:45:45;9.80;99.90
19868;DHT22;10096;51.112;6.776;2023-04-03T15:48:15;9.70;99.90
19868;DHT22;10096;51.112;6.776;2023-04-03T15:50:42;9.60;99.90
19868;DHT22;10096;51.112;6.776;2023-04-03T15:53:09;9.50;99.90
19868;DHT22;10096;51.112;6.776;2023-04-03T15:55:37;9.60;99.90
19868;DHT22;10096;51.112;6.776;2023-04-03T15:58:05;9.80;99.90
19868;DHT22;10096;51.112;6.776;2023-04-03T16:00:32;9.60;99.90
19868;DHT22;10096;51.112;6.776;2023-04-03T16:03:08;9.70;99.90
19868;DHT22;10096;51.112;6.776;2023-04-03T16:05:37;9.60;99.90
19868;DHT22;10096;51.112;6.776;2023-04-03T16:08:05;9.70;99.90
19868;DHT22;10096;51.112;6.776;2023-04-03T16:10:33;9.50;99.90
19868;DHT22;10096;51.112;6.776;2023-04-03T16:13:00;9.70;99.90
19868;DHT22;10096;51.112;6.776;2023-04-03T16:15:28;9.50;99.90
19868;DHT22;10096;51.112;6.776;2023-04-03T16:17:55;9.60;99.90
19868;DHT22;10096;51.112;6.776;2023-04-03T16:20:27;9.50;99.90
19868;DHT22;10096;51.112;6.776;2023-04-03T16:22:56;9.40;99.90
19868;DHT22;10096;51.112;6.776;2023-04-03T16:25:24;9.30;99.90
19868;DHT22;10096;51.112;6.776;2023-04-03T16:27:51;9.50;99.90